createdAt,value
2023-05-29T00:00:10.711Z,76.39
2023-05-29T00:03:03.059Z,76.55
2023-05-29T00:06:08.452Z,76.60
2023-05-29T00:08:47.677Z,76.86
2023-05-29T00:11:20.096Z,76.73
2023-05-29T00:13:58.807Z,76.82
2023-05-29T00:16:31.680Z,76.88
2023-05-29T00:19:04.033Z,77.10
2023-05-29T00:25:31.881Z,77.56
2023-05-29T00:28:04.299Z,77.60
2023-05-29T00:35:18.203Z,77.86
2023-05-29T00:37:51.967Z,77.98
2023-05-29T00:40:24.264Z,77.95
2023-05-29T00:43:28.369Z,78.18
2023-05-29T00:59:34.272Z,78.85
2023-05-29T01:02:53.945Z,78.63
2023-05-29T01:06:45.005Z,79.06
2023-05-29T01:09:17.909Z,79.18
2023-05-29T01:12:24.531Z,79.13
2023-05-29T01:31:22.936Z,79.45
2023-05-29T01:34:16.430Z,79.48
2023-05-29T01:36:55.851Z,79.74
2023-05-29T01:39:28.674Z,79.72
2023-05-29T01:42:09.965Z,79.44
2023-05-29T01:44:56.276Z,79.87
2023-05-29T01:51:37.933Z,80.22
2023-05-29T01:54:11.127Z,79.95
2023-05-29T01:56:51.782Z,80.11
2023-05-29T01:59:39.187Z,80.05
2023-05-29T02:06:13.328Z,80.11
2023-05-29T02:20:53.980Z,80.51
2023-05-29T02:27:59.866Z,81.06
2023-05-29T02:30:32.503Z,80.69
2023-05-29T02:33:04.888Z,80.99
2023-05-29T02:35:59.841Z,81.03
2023-05-29T02:38:38.929Z,81.03
2023-05-29T02:41:12.998Z,80.83
2023-05-29T02:43:51.902Z,80.76
2023-05-29T02:51:07.624Z,81.07
2023-05-29T02:53:40.001Z,81.13
2023-05-29T02:56:17.015Z,81.35
2023-05-29T02:58:56.169Z,81.50
2023-05-29T03:01:28.485Z,81.46
2023-05-29T03:04:24.507Z,81.83
2023-05-29T03:06:56.682Z,81.86
2023-05-29T03:09:29.275Z,81.73
2023-05-29T03:16:05.756Z,82.33
2023-05-29T03:23:12.907Z,82.61
2023-05-29T03:25:52.757Z,82.71
2023-05-29T03:28:25.614Z,82.71
2023-05-29T03:35:23.286Z,83.08
2023-05-29T03:38:15.360Z,83.22
2023-05-29T03:40:53.910Z,83.32
2023-05-29T03:43:26.167Z,83.40
2023-05-29T03:46:04.940Z,83.64
2023-05-29T03:48:37.726Z,84.05
2023-05-29T03:51:17.278Z,83.93
2023-05-29T03:58:22.990Z,84.66
2023-05-29T04:01:03.686Z,84.53
2023-05-29T04:03:36.737Z,84.63
2023-05-29T04:06:09.839Z,84.83
2023-05-29T04:13:37.607Z,84.99
2023-05-29T04:16:12.503Z,85.05
2023-05-29T04:18:44.897Z,85.32
2023-05-29T04:21:24.294Z,85.66
2023-05-29T04:23:57.250Z,85.96
2023-05-29T04:26:36.289Z,85.97
2023-05-29T04:29:08.563Z,86.08
2023-05-29T04:35:36.171Z,86.64
2023-05-29T04:39:33.536Z,86.97
2023-05-29T04:42:08.099Z,87.26
2023-05-29T04:45:15.859Z,87.47
2023-05-29T04:47:48.303Z,87.64
2023-05-29T04:54:54.079Z,88.23
2023-05-29T04:58:01.490Z,88.23
2023-05-29T05:05:07.677Z,88.91
2023-05-29T05:07:40.198Z,88.86
2023-05-29T05:19:07.766Z,88.46
2023-05-29T05:21:41.406Z,88.63
2023-05-29T05:24:46.835Z,88.37
2023-05-29T05:31:48.946Z,87.42
2023-05-29T05:34:24.703Z,87.81
2023-05-29T05:42:01.130Z,87.64
2023-05-29T05:46:07.686Z,87.49
2023-05-29T05:48:41.911Z,86.92
2023-05-29T05:51:31.921Z,86.56
2023-05-29T05:54:04.079Z,86.12
2023-05-29T05:56:36.864Z,86.17
2023-05-29T05:59:16.216Z,85.22
2023-05-29T06:01:48.571Z,85.10
2023-05-29T06:04:21.140Z,85.00
2023-05-29T06:07:09.728Z,84.17
2023-05-29T06:09:41.945Z,84.17
2023-05-29T06:16:47.975Z,83.18
2023-05-29T06:19:20.484Z,83.31
2023-05-29T06:22:19.827Z,82.59
2023-05-29T06:24:52.231Z,82.52
2023-05-29T06:31:57.147Z,80.89
2023-05-29T06:38:17.593Z,80.27
2023-05-29T06:40:50.441Z,80.40
2023-05-29T06:43:23.117Z,80.20
2023-05-29T06:49:43.067Z,78.69
2023-05-29T06:52:15.353Z,78.54
2023-05-29T06:56:22.216Z,78.15
2023-05-29T06:58:54.569Z,77.71
2023-05-29T07:01:27.705Z,76.94
2023-05-29T07:05:11.634Z,76.33
2023-05-29T07:07:44.055Z,75.72
2023-05-29T07:10:40.297Z,75.36
2023-05-29T07:14:12.992Z,74.72
2023-05-29T07:17:06.487Z,73.74
2023-05-29T07:19:38.916Z,72.83
2023-05-29T07:22:39.370Z,72.81
2023-05-29T07:25:12.320Z,71.69
2023-05-29T07:31:18.331Z,71.76
2023-05-29T07:37:27.316Z,69.08
2023-05-29T07:43:52.564Z,68.15
2023-05-29T07:46:25.908Z,67.77
2023-05-29T07:49:12.416Z,66.47
2023-05-29T07:51:46.208Z,65.99
2023-05-29T07:54:48.920Z,65.64
2023-05-29T07:57:23.347Z,65.26
2023-05-29T08:03:52.987Z,63.21
2023-05-29T08:06:39.309Z,61.70
2023-05-29T08:12:53.245Z,61.23
2023-05-29T08:15:46.826Z,61.08
2023-05-29T08:18:22.545Z,59.52
2023-05-29T08:20:55.334Z,58.98
2023-05-29T08:23:35.615Z,59.24
2023-05-29T08:26:08.531Z,58.76
2023-05-29T08:29:12.639Z,56.69
2023-05-29T08:31:44.967Z,57.55
2023-05-29T08:34:17.688Z,56.39
2023-05-29T08:36:57.043Z,56.51
2023-05-29T08:39:29.730Z,56.66
2023-05-29T08:42:35.744Z,55.95
2023-05-29T08:45:15.233Z,54.68
2023-05-29T08:51:18.754Z,53.99
2023-05-29T08:57:24.481Z,54.37
2023-05-29T09:08:27.349Z,50.18
2023-05-29T09:11:00.129Z,49.59
2023-05-29T09:17:09.431Z,50.54
2023-05-29T09:23:08.137Z,50.46
2023-05-29T09:33:12.762Z,48.78
2023-05-29T09:44:17.501Z,47.63
2023-05-29T09:47:23.924Z,47.39
2023-05-29T09:49:57.527Z,46.52
2023-05-29T09:52:33.374Z,45.66
2023-05-29T09:59:26.472Z,45.91
2023-05-29T10:02:08.451Z,45.73
2023-05-29T10:05:25.748Z,45.23
2023-05-29T10:11:49.622Z,45.03
2023-05-29T10:15:22.067Z,45.21
2023-05-29T10:18:03.170Z,44.94
2023-05-29T10:21:21.564Z,45.52
2023-05-29T10:28:32.319Z,45.04
2023-05-29T10:31:11.174Z,44.87
2023-05-29T10:38:28.919Z,43.78
2023-05-29T10:45:08.368Z,44.00
2023-05-29T10:51:32.948Z,43.83
2023-05-29T10:54:47.873Z,44.31
2023-05-29T11:09:53.258Z,42.89
2023-05-29T11:17:00.559Z,42.05
2023-05-29T11:20:34.048Z,42.18
2023-05-29T11:23:09.314Z,41.78
2023-05-29T11:30:18.460Z,41.25
2023-05-29T11:33:38.092Z,41.66
2023-05-29T11:41:03.340Z,40.90
2023-05-29T11:43:35.728Z,40.78
2023-05-29T11:46:37.348Z,40.62
2023-05-29T11:53:45.664Z,40.56
2023-05-29T11:56:24.201Z,40.80
2023-05-29T12:02:50.713Z,40.92
2023-05-29T12:09:58.911Z,39.74
2023-05-29T12:12:37.665Z,38.68
2023-05-29T12:15:12.080Z,39.35
2023-05-29T12:17:44.637Z,39.22
2023-05-29T12:24:14.500Z,39.28
2023-05-29T12:27:33.781Z,39.36
2023-05-29T12:30:24.215Z,39.68
2023-05-29T12:33:47.753Z,39.61
2023-05-29T12:40:36.059Z,39.13
2023-05-29T12:43:10.366Z,39.25
2023-05-29T12:46:12.696Z,38.33
2023-05-29T12:48:45.342Z,38.61
2023-05-29T12:56:10.183Z,38.51
2023-05-29T13:01:58.097Z,37.90
2023-05-29T13:04:31.050Z,37.59
2023-05-29T13:07:10.147Z,37.55
2023-05-29T13:09:43.041Z,37.27
2023-05-29T13:12:45.410Z,37.07
2023-05-29T13:19:56.797Z,36.41
2023-05-29T13:27:01.920Z,35.29
2023-05-29T13:29:34.763Z,35.70
2023-05-29T13:33:10.955Z,35.65
2023-05-29T13:35:43.445Z,35.23
2023-05-29T13:38:16.410Z,35.85
2023-05-29T13:40:48.697Z,36.21
2023-05-29T13:43:26.810Z,36.54
2023-05-29T13:54:59.193Z,35.81
2023-05-29T13:57:32.261Z,35.86
2023-05-29T14:00:30.256Z,36.13
2023-05-29T14:03:04.452Z,35.66
2023-05-29T14:05:50.883Z,35.84
2023-05-29T14:08:39.005Z,35.92
2023-05-29T14:14:45.273Z,35.75
2023-05-29T14:21:04.938Z,35.57
2023-05-29T14:24:10.105Z,35.17
2023-05-29T14:26:51.041Z,34.88
2023-05-29T14:34:17.028Z,35.64
2023-05-29T14:36:55.954Z,35.50
2023-05-29T14:39:28.352Z,35.92
2023-05-29T14:42:07.855Z,35.81
2023-05-29T14:44:40.371Z,35.66
2023-05-29T14:47:20.317Z,34.71
2023-05-29T14:49:52.586Z,35.67
2023-05-29T14:52:31.202Z,35.53
2023-05-29T14:58:53.910Z,34.55
2023-05-29T15:05:59.094Z,35.08
2023-05-29T15:08:37.968Z,35.20
2023-05-29T15:11:10.640Z,35.45
2023-05-29T15:13:45.865Z,35.19
2023-05-29T15:20:50.357Z,35.83
2023-05-29T15:23:24.100Z,35.35
2023-05-29T15:26:57.376Z,35.72
2023-05-29T15:32:28.415Z,35.67
2023-05-29T15:35:01.418Z,35.96
2023-05-29T15:37:33.742Z,35.98
2023-05-29T15:43:44.631Z,36.07
2023-05-29T15:46:24.178Z,36.04
2023-05-29T15:49:36.765Z,36.07
2023-05-29T15:52:23.072Z,36.22
2023-05-29T15:54:55.461Z,36.22
2023-05-29T15:57:27.687Z,36.46
2023-05-29T15:59:59.913Z,36.06
2023-05-29T16:02:32.345Z,36.45
2023-05-29T16:05:07.558Z,36.51
2023-05-29T16:07:53.375Z,36.59
2023-05-29T16:10:26.691Z,36.51
2023-05-29T16:12:59.005Z,36.22
2023-05-29T16:15:31.312Z,36.31
2023-05-29T16:18:03.946Z,35.61
2023-05-29T16:20:36.810Z,36.54
2023-05-29T16:23:11.465Z,36.45
2023-05-29T16:25:46.204Z,36.45
2023-05-29T16:28:18.869Z,36.69
2023-05-29T16:30:54.394Z,36.79
2023-05-29T16:33:37.852Z,39.44
2023-05-29T16:36:11.911Z,38.23
2023-05-29T16:38:50.377Z,37.87
2023-05-29T16:41:23.151Z,37.72
2023-05-29T16:43:55.399Z,37.98
2023-05-29T16:46:35.327Z,37.61
2023-05-29T16:49:08.339Z,37.91
2023-05-29T16:51:40.537Z,38.04
2023-05-29T16:54:13.133Z,38.24
2023-05-29T16:56:45.295Z,38.44
2023-05-29T16:59:19.680Z,38.78
2023-05-29T17:01:52.018Z,38.80
2023-05-29T17:04:24.434Z,39.58
2023-05-29T17:06:56.827Z,40.51
2023-05-29T17:09:31.922Z,40.10
2023-05-29T17:12:04.338Z,40.35
2023-05-29T17:14:36.601Z,40.55
2023-05-29T17:17:09.840Z,40.45
2023-05-29T17:19:42.218Z,41.01
2023-05-29T17:22:14.536Z,41.54
2023-05-29T17:24:46.811Z,42.05
2023-05-29T17:27:19.156Z,42.29
2023-05-29T17:29:51.370Z,42.69
2023-05-29T17:32:23.670Z,43.29
2023-05-29T17:34:55.869Z,43.58
2023-05-29T17:37:28.887Z,43.33
2023-05-29T17:40:02.334Z,42.85
2023-05-29T17:42:34.924Z,42.89
2023-05-29T17:45:09.571Z,43.06
2023-05-29T17:47:46.138Z,43.91
2023-05-29T17:50:18.440Z,44.45
2023-05-29T17:52:50.660Z,44.46
2023-05-29T17:55:23.261Z,44.81
2023-05-29T17:57:56.673Z,45.23
2023-05-29T18:00:29.252Z,45.37
2023-05-29T18:03:02.686Z,45.27
2023-05-29T18:05:36.186Z,46.15
2023-05-29T18:08:08.520Z,46.25
2023-05-29T18:10:40.816Z,46.56
2023-05-29T18:13:13.230Z,46.43
2023-05-29T18:15:45.710Z,46.76
2023-05-29T18:18:20.010Z,47.26
2023-05-29T18:20:53.773Z,47.57
2023-05-29T18:23:26.059Z,47.95
2023-05-29T18:25:58.696Z,48.31
2023-05-29T18:28:31.426Z,48.87
2023-05-29T18:31:03.766Z,49.13
2023-05-29T18:33:36.021Z,49.64
2023-05-29T18:36:08.934Z,49.90
2023-05-29T18:38:42.256Z,50.31
2023-05-29T18:41:14.556Z,50.36
2023-05-29T18:43:47.108Z,50.62
2023-05-29T18:46:22.422Z,51.43
2023-05-29T18:48:54.891Z,51.39
2023-05-29T18:51:27.538Z,51.91
2023-05-29T18:54:00.532Z,51.82
2023-05-29T18:56:32.921Z,52.18
2023-05-29T18:59:05.181Z,52.61
2023-05-29T19:01:39.969Z,53.10
2023-05-29T19:04:15.175Z,53.29
2023-05-29T19:06:47.551Z,53.56
2023-05-29T19:09:19.949Z,53.90
2023-05-29T19:11:52.198Z,54.17
2023-05-29T19:14:24.404Z,54.43
2023-05-29T19:16:56.714Z,54.55
2023-05-29T19:19:29.030Z,55.33
2023-05-29T19:29:08.318Z,56.41
2023-05-29T19:31:40.927Z,56.45
2023-05-29T19:37:57.016Z,57.22
2023-05-29T19:44:16.240Z,58.10
2023-05-29T19:51:13.749Z,59.04
2023-05-29T20:04:28.924Z,60.90
2023-05-29T20:07:34.300Z,60.98
2023-05-29T20:18:54.790Z,62.05
2023-05-29T20:21:34.506Z,62.44
2023-05-29T20:24:08.353Z,62.96
2023-05-29T20:26:41.584Z,63.01
2023-05-29T20:29:20.439Z,63.00
2023-05-29T20:32:03.958Z,63.15
2023-05-29T20:34:42.896Z,63.44
2023-05-29T20:37:15.559Z,63.51
2023-05-29T20:43:41.888Z,64.14
2023-05-29T20:46:16.715Z,64.53
2023-05-29T20:48:55.529Z,64.57
2023-05-29T20:51:28.123Z,64.63
2023-05-29T20:54:06.767Z,64.97
2023-05-29T20:56:40.787Z,64.98
2023-05-29T20:59:20.946Z,65.13
2023-05-29T21:01:53.755Z,65.50
2023-05-29T21:08:58.651Z,65.94
2023-05-29T21:11:44.808Z,65.95
2023-05-29T21:14:17.084Z,66.20
2023-05-29T21:16:49.317Z,66.38
2023-05-29T21:19:28.559Z,66.30
2023-05-29T21:22:02.249Z,66.13
2023-05-29T21:24:41.710Z,66.29
2023-05-29T21:27:13.952Z,66.72
2023-05-29T21:29:52.777Z,66.84
2023-05-29T21:32:25.183Z,67.22
2023-05-29T21:34:58.632Z,67.03
2023-05-29T21:42:03.456Z,67.91
2023-05-29T21:44:35.983Z,67.99
2023-05-29T21:47:14.885Z,67.83
2023-05-29T21:49:47.138Z,68.16
2023-05-29T21:52:20.295Z,68.15
2023-05-29T21:54:52.471Z,68.15
2023-05-29T21:57:44.743Z,68.27
2023-05-29T22:00:18.531Z,68.75
2023-05-29T22:02:51.080Z,68.60
2023-05-29T22:08:56.756Z,68.83
2023-05-29T22:11:30.054Z,68.94
2023-05-29T22:14:02.309Z,68.95
2023-05-29T22:16:40.981Z,68.92
2023-05-29T22:23:45.680Z,69.66
2023-05-29T22:26:30.730Z,69.82
2023-05-29T22:29:47.999Z,70.16
2023-05-29T22:32:20.924Z,70.28
2023-05-29T22:34:59.994Z,69.99
2023-05-29T22:42:04.854Z,70.47
2023-05-29T22:44:43.602Z,70.59
2023-05-29T22:47:16.873Z,71.00
2023-05-29T22:49:55.631Z,70.89
2023-05-29T22:52:28.713Z,71.18
2023-05-29T22:55:25.808Z,71.75
2023-05-29T22:57:58.417Z,71.85
2023-05-29T23:05:12.367Z,71.95
2023-05-29T23:07:44.590Z,72.06
2023-05-29T23:18:30.785Z,72.46
2023-05-29T23:21:03.023Z,72.49
2023-05-29T23:23:35.229Z,72.63
2023-05-29T23:26:07.455Z,72.73
2023-05-29T23:32:44.922Z,73.58
2023-05-29T23:35:17.311Z,73.48
2023-05-29T23:37:52.591Z,73.54
2023-05-29T23:41:42.983Z,73.87
2023-05-29T23:44:21.709Z,73.92
2023-05-29T23:46:53.946Z,74.28
2023-05-29T23:49:33.738Z,74.15
2023-05-29T23:52:06.626Z,74.14
2023-05-29T23:54:45.629Z,74.57
2023-05-29T23:57:18.346Z,74.36
2023-05-29T23:59:56.748Z,74.72
